HISTORICAL SENSOR DATA

Sensor Data Report

DB LIVE
CURRENT TIME--:--:--
DEVICE NETWORK Gateway Status
13 ESP · realtime ~1s · history 60s
Weather WS-MOD-01
ONLINE
Actuator ACT-MOD-01
OFFLINE
Mainboard L3 MB-L3-01
ONLINE
Mainboard L5 MB-L5-01
ONLINE
Remote AC AC-REMOTE-01
ONLINE
PZEM L3-01 PWR-L3-01
OFFLINE
PZEM L3-02 PWR-L3-02
OFFLINE
PZEM L3-03 PWR-L3-03
OFFLINE
PZEM L3-04 PWR-L3-04
OFFLINE
PZEM L5-01 PWR-L5-01
ONLINE
PZEM L5-02 PWR-L5-02
ONLINE
PZEM L5-03 PWR-L5-03
OFFLINE
PZEM L5-04 PWR-L5-04
OFFLINE
REPORT FILTER

Periode & Sensor

DATABASE HISTORY
RESET
QUICK RANGE Hari ini 7 hari 30 hari
PERIODE08 Aug 2026sampai 06 Sep 2026
TOTAL DATA64,855sensor readings
MINIMUM-0.50sesuai filter
AVERAGE87.14sesuai filter
MAXIMUM32,564.20sesuai filter
REPORT RESULT

Data Sensor

08/08/2026 — 06/09/2026 EXPORT CSV
NOTANGGALWAKTUDEVICECHANNELSENSORVALUEUNIT
3101 06/09/2026 22:29:00 PWR-L5-01Power Meter L5 PZEM 01 PZEM-L5-01-VOLT PZEM L5-01 Voltage 225.80 V
3102 06/09/2026 22:29:00 AC-REMOTE-01Remote AC AC-POWER AC Power State 1.00 state
3103 06/09/2026 22:29:00 PWR-L5-02Power Meter L5 PZEM 02 PZEM-L5-02-ENERGY PZEM L5-02 Energy 0.04 kWh
3104 06/09/2026 22:29:00 MB-L3-01Mainboard Lantai 3 L3-SHT-02-RH SHT20 2 Humidity 44.40 %RH
3105 06/09/2026 22:29:00 PWR-L5-01Power Meter L5 PZEM 01 PZEM-L5-01-POWER PZEM L5-01 Active Power 10.40 W
3106 06/09/2026 22:29:00 MB-L3-01Mainboard Lantai 3 L3-RAD-02 Radiation 2 0.00 W/m²
3107 06/09/2026 22:29:00 MB-L3-01Mainboard Lantai 3 L3-LUX-03 Illuminance / LUX 3 0.20 lux
3108 06/09/2026 22:29:00 MB-L5-01Mainboard Lantai 5 L5-SHT-02-T SHT20 2 Temperature 29.40 °C
3109 06/09/2026 22:29:00 PWR-L5-01Power Meter L5 PZEM 01 PZEM-L5-01-FREQ PZEM L5-01 Frequency 50.00 Hz
3110 06/09/2026 22:29:00 PWR-L5-02Power Meter L5 PZEM 02 PZEM-L5-02-FREQ PZEM L5-02 Frequency 50.00 Hz
3111 06/09/2026 22:29:00 MB-L5-01Mainboard Lantai 5 L5-HFT-02 Heat Flow Temperature 2 24.70 °C
3112 06/09/2026 22:29:00 MB-L5-01Mainboard Lantai 5 L5-BGT-03 Black Globe Temperature 3 26.90 °C
3113 06/09/2026 22:29:00 AC-REMOTE-01Remote AC AC-SETPOINT AC Set Temperature 23.00 °C
3114 06/09/2026 22:29:00 MB-L5-01Mainboard Lantai 5 L5-AI-02 Analog Input 2 3.05 V
3115 06/09/2026 22:29:00 MB-L3-01Mainboard Lantai 3 L3-AI-03 Analog Input 3 3.12 V
3116 06/09/2026 22:29:00 MB-L5-01Mainboard Lantai 5 L5-AI-06 Analog Input 6 3.05 V
3117 06/09/2026 22:29:00 MB-L3-01Mainboard Lantai 3 L3-LUX-01 Illuminance / LUX 1 0.20 lux
3118 06/09/2026 22:29:00 MB-L5-01Mainboard Lantai 5 L5-RAD-02 Radiation 2 1.00 W/m²
3119 06/09/2026 22:29:00 MB-L3-01Mainboard Lantai 3 L3-RAD-01 Radiation 1 1.00 W/m²
3120 06/09/2026 22:29:00 PWR-L5-02Power Meter L5 PZEM 02 PZEM-L5-02-PF PZEM L5-02 Power Factor 0.00
3121 06/09/2026 22:29:00 MB-L5-01Mainboard Lantai 5 L5-LUX-04 Illuminance / LUX 4 0.10 lux
3122 06/09/2026 22:29:00 MB-L5-01Mainboard Lantai 5 L5-SHT-03-RH SHT20 3 Humidity 44.70 %RH
3123 06/09/2026 22:29:00 AC-REMOTE-01Remote AC AC-MODE AC Operating Mode 1.00 code
3124 06/09/2026 22:29:00 MB-L3-01Mainboard Lantai 3 L3-SHT-02-T SHT20 2 Temperature 29.20 °C
3125 06/09/2026 22:29:00 MB-L5-01Mainboard Lantai 5 L5-HFT-01 Heat Flow Temperature 1 24.90 °C
3126 06/09/2026 22:29:00 MB-L5-01Mainboard Lantai 5 L5-SHT-01-T SHT20 1 Temperature 29.10 °C
3127 06/09/2026 22:29:00 MB-L3-01Mainboard Lantai 3 L3-AI-02 Analog Input 2 3.12 V
3128 06/09/2026 22:29:00 MB-L5-01Mainboard Lantai 5 L5-BGT-02 Black Globe Temperature 2 27.10 °C
3129 06/09/2026 22:29:00 MB-L5-01Mainboard Lantai 5 L5-AI-01 Analog Input 1 3.05 V
3130 06/09/2026 22:29:00 MB-L5-01Mainboard Lantai 5 L5-AI-05 Analog Input 5 3.05 V
3131 06/09/2026 22:29:00 AC-REMOTE-01Remote AC AC-FAN AC Fan Speed 0.00 code
3132 06/09/2026 22:29:00 MB-L3-01Mainboard Lantai 3 L3-AI-06 Analog Input 6 3.12 V
3133 06/09/2026 22:29:00 PWR-L5-01Power Meter L5 PZEM 01 PZEM-L5-01-CURR PZEM L5-01 Current 0.12 A
3134 06/09/2026 22:29:00 MB-L5-01Mainboard Lantai 5 L5-SHT-02-RH SHT20 2 Humidity 44.20 %RH
3135 06/09/2026 22:29:00 WS-MOD-01Weather Station Module WS-WIND Kecepatan Angin 3.59 m/s
3136 06/09/2026 22:29:00 PWR-L5-01Power Meter L5 PZEM 01 PZEM-L5-01-ENERGY PZEM L5-01 Energy 0.05 kWh
3137 06/09/2026 22:29:00 MB-L3-01Mainboard Lantai 3 L3-LUX-05 Illuminance / LUX 5 0.30 lux
3138 06/09/2026 22:29:00 MB-L5-01Mainboard Lantai 5 L5-LUX-01 Illuminance / LUX 1 0.00 lux
3139 06/09/2026 22:29:00 MB-L5-01Mainboard Lantai 5 L5-SHT-01-RH SHT20 1 Humidity 45.00 %RH
3140 06/09/2026 22:29:00 MB-L5-01Mainboard Lantai 5 L5-ST-02 Surface Temperature 2 24.90 °C
3141 06/09/2026 22:29:00 MB-L3-01Mainboard Lantai 3 L3-AI-01 Analog Input 1 3.12 V
3142 06/09/2026 22:29:00 MB-L3-01Mainboard Lantai 3 L3-SHT-01-T SHT20 1 Temperature 29.10 °C
3143 06/09/2026 22:28:00 MB-L3-01Mainboard Lantai 3 L3-LUX-02 Illuminance / LUX 2 0.20 lux
3144 06/09/2026 22:28:00 MB-L3-01Mainboard Lantai 3 L3-SHT-03-T SHT20 3 Temperature 29.20 °C
3145 06/09/2026 22:28:00 MB-L5-01Mainboard Lantai 5 L5-SHT-03-T SHT20 3 Temperature 29.20 °C
3146 06/09/2026 22:28:00 MB-L5-01Mainboard Lantai 5 L5-RAD-01 Radiation 1 1.00 W/m²
3147 06/09/2026 22:28:00 PWR-L5-02Power Meter L5 PZEM 02 PZEM-L5-02-POWER PZEM L5-02 Active Power 0.00 W
3148 06/09/2026 22:28:00 MB-L5-01Mainboard Lantai 5 L5-AI-03 Analog Input 3 3.05 V
3149 06/09/2026 22:28:00 MB-L5-01Mainboard Lantai 5 L5-ST-01 Surface Temperature 1 25.00 °C
3150 06/09/2026 22:28:00 MB-L3-01Mainboard Lantai 3 L3-LUX-04 Illuminance / LUX 4 0.10 lux
3151 06/09/2026 22:28:00 MB-L3-01Mainboard Lantai 3 L3-AI-04 Analog Input 4 3.12 V
3152 06/09/2026 22:28:00 PWR-L5-01Power Meter L5 PZEM 01 PZEM-L5-01-VOLT PZEM L5-01 Voltage 225.80 V
3153 06/09/2026 22:28:00 AC-REMOTE-01Remote AC AC-POWER AC Power State 1.00 state
3154 06/09/2026 22:28:00 PWR-L5-02Power Meter L5 PZEM 02 PZEM-L5-02-ENERGY PZEM L5-02 Energy 0.04 kWh
3155 06/09/2026 22:28:00 MB-L3-01Mainboard Lantai 3 L3-SHT-02-RH SHT20 2 Humidity 44.30 %RH
3156 06/09/2026 22:28:00 PWR-L5-01Power Meter L5 PZEM 01 PZEM-L5-01-POWER PZEM L5-01 Active Power 10.40 W
3157 06/09/2026 22:28:00 MB-L3-01Mainboard Lantai 3 L3-RAD-02 Radiation 2 0.00 W/m²
3158 06/09/2026 22:28:00 MB-L3-01Mainboard Lantai 3 L3-LUX-03 Illuminance / LUX 3 0.20 lux
3159 06/09/2026 22:28:00 MB-L5-01Mainboard Lantai 5 L5-SHT-02-T SHT20 2 Temperature 29.40 °C
3160 06/09/2026 22:28:00 PWR-L5-01Power Meter L5 PZEM 01 PZEM-L5-01-FREQ PZEM L5-01 Frequency 50.00 Hz
3161 06/09/2026 22:28:00 PWR-L5-02Power Meter L5 PZEM 02 PZEM-L5-02-FREQ PZEM L5-02 Frequency 50.00 Hz
3162 06/09/2026 22:28:00 MB-L5-01Mainboard Lantai 5 L5-HFT-02 Heat Flow Temperature 2 24.70 °C
3163 06/09/2026 22:28:00 MB-L5-01Mainboard Lantai 5 L5-BGT-03 Black Globe Temperature 3 26.90 °C
3164 06/09/2026 22:28:00 AC-REMOTE-01Remote AC AC-SETPOINT AC Set Temperature 23.00 °C
3165 06/09/2026 22:28:00 MB-L5-01Mainboard Lantai 5 L5-AI-02 Analog Input 2 3.05 V
3166 06/09/2026 22:28:00 MB-L3-01Mainboard Lantai 3 L3-AI-03 Analog Input 3 3.12 V
3167 06/09/2026 22:28:00 MB-L5-01Mainboard Lantai 5 L5-AI-06 Analog Input 6 3.05 V
3168 06/09/2026 22:28:00 MB-L3-01Mainboard Lantai 3 L3-LUX-01 Illuminance / LUX 1 0.20 lux
3169 06/09/2026 22:28:00 MB-L5-01Mainboard Lantai 5 L5-RAD-02 Radiation 2 1.00 W/m²
3170 06/09/2026 22:28:00 MB-L3-01Mainboard Lantai 3 L3-RAD-01 Radiation 1 1.00 W/m²
3171 06/09/2026 22:28:00 PWR-L5-02Power Meter L5 PZEM 02 PZEM-L5-02-PF PZEM L5-02 Power Factor 0.00
3172 06/09/2026 22:28:00 MB-L5-01Mainboard Lantai 5 L5-LUX-04 Illuminance / LUX 4 0.10 lux
3173 06/09/2026 22:28:00 MB-L5-01Mainboard Lantai 5 L5-SHT-03-RH SHT20 3 Humidity 44.80 %RH
3174 06/09/2026 22:28:00 AC-REMOTE-01Remote AC AC-MODE AC Operating Mode 1.00 code
3175 06/09/2026 22:28:00 MB-L3-01Mainboard Lantai 3 L3-SHT-02-T SHT20 2 Temperature 29.30 °C
3176 06/09/2026 22:28:00 MB-L5-01Mainboard Lantai 5 L5-HFT-01 Heat Flow Temperature 1 25.00 °C
3177 06/09/2026 22:28:00 MB-L5-01Mainboard Lantai 5 L5-SHT-01-T SHT20 1 Temperature 29.10 °C
3178 06/09/2026 22:28:00 MB-L3-01Mainboard Lantai 3 L3-AI-02 Analog Input 2 3.12 V
3179 06/09/2026 22:28:00 MB-L5-01Mainboard Lantai 5 L5-BGT-02 Black Globe Temperature 2 27.10 °C
3180 06/09/2026 22:28:00 MB-L5-01Mainboard Lantai 5 L5-AI-01 Analog Input 1 3.05 V
3181 06/09/2026 22:28:00 MB-L5-01Mainboard Lantai 5 L5-AI-05 Analog Input 5 3.05 V
3182 06/09/2026 22:28:00 AC-REMOTE-01Remote AC AC-FAN AC Fan Speed 0.00 code
3183 06/09/2026 22:28:00 MB-L3-01Mainboard Lantai 3 L3-AI-06 Analog Input 6 3.12 V
3184 06/09/2026 22:28:00 PWR-L5-01Power Meter L5 PZEM 01 PZEM-L5-01-CURR PZEM L5-01 Current 0.12 A
3185 06/09/2026 22:28:00 MB-L5-01Mainboard Lantai 5 L5-SHT-02-RH SHT20 2 Humidity 44.30 %RH
3186 06/09/2026 22:28:00 WS-MOD-01Weather Station Module WS-WIND Kecepatan Angin 4.61 m/s
3187 06/09/2026 22:28:00 PWR-L5-01Power Meter L5 PZEM 01 PZEM-L5-01-ENERGY PZEM L5-01 Energy 0.05 kWh
3188 06/09/2026 22:28:00 MB-L3-01Mainboard Lantai 3 L3-LUX-05 Illuminance / LUX 5 0.30 lux
3189 06/09/2026 22:28:00 MB-L5-01Mainboard Lantai 5 L5-LUX-01 Illuminance / LUX 1 0.00 lux
3190 06/09/2026 22:28:00 MB-L5-01Mainboard Lantai 5 L5-SHT-01-RH SHT20 1 Humidity 44.80 %RH
3191 06/09/2026 22:28:00 MB-L5-01Mainboard Lantai 5 L5-ST-02 Surface Temperature 2 24.90 °C
3192 06/09/2026 22:28:00 MB-L3-01Mainboard Lantai 3 L3-AI-01 Analog Input 1 3.12 V
3193 06/09/2026 22:28:00 MB-L3-01Mainboard Lantai 3 L3-SHT-01-T SHT20 1 Temperature 29.00 °C
3194 06/09/2026 22:28:00 WS-MOD-01Weather Station Module WS-TEMP Suhu Udara 20.60 °C
3195 06/09/2026 22:28:00 PWR-L5-01Power Meter L5 PZEM 01 PZEM-L5-01-PF PZEM L5-01 Power Factor 0.38
3196 06/09/2026 22:28:00 MB-L5-01Mainboard Lantai 5 L5-BGT-01 Black Globe Temperature 1 27.20 °C
3197 06/09/2026 22:28:00 MB-L3-01Mainboard Lantai 3 L3-LUX-06 Illuminance / LUX 6 0.30 lux
3198 06/09/2026 22:28:00 MB-L5-01Mainboard Lantai 5 L5-AI-04 Analog Input 4 3.05 V
3199 06/09/2026 22:28:00 MB-L5-01Mainboard Lantai 5 L5-LUX-02 Illuminance / LUX 2 0.10 lux
3200 06/09/2026 22:28:00 MB-L3-01Mainboard Lantai 3 L3-SHT-01-RH SHT20 1 Humidity 44.80 %RH
Menampilkan maksimal 100 data per halaman